createdAt,value
2018-12-19T00:00:31.795Z,5.80
2018-12-19T00:05:34.849Z,5.80
2018-12-19T00:10:37.932Z,5.80
2018-12-19T00:15:40.977Z,5.80
2018-12-19T00:20:44.050Z,5.90
2018-12-19T00:25:47.102Z,5.90
2018-12-19T00:30:50.177Z,6.00
2018-12-19T00:35:53.228Z,6.10
2018-12-19T01:01:08.834Z,6.30
2018-12-19T01:06:11.941Z,6.30
2018-12-19T01:11:14.997Z,6.20
2018-12-19T01:21:21.095Z,6.10
2018-12-19T01:26:24.249Z,6.10
2018-12-19T01:31:27.301Z,6.10
2018-12-19T01:36:30.375Z,6.10
2018-12-19T01:41:33.449Z,6.10
2018-12-19T01:51:39.593Z,6.20
2018-12-19T02:01:45.701Z,6.30
2018-12-19T02:06:48.805Z,6.30
2018-12-19T02:11:51.906Z,6.30
2018-12-19T02:16:54.954Z,6.20
2018-12-19T02:21:58.001Z,6.30
2018-12-19T02:27:01.067Z,6.30
2018-12-19T02:32:06.114Z,6.20
2018-12-19T02:37:09.149Z,6.20
2018-12-19T02:42:12.230Z,6.30
2018-12-19T02:47:15.280Z,6.20
2018-12-19T02:52:18.358Z,6.10
2018-12-19T03:02:24.742Z,6.00
2018-12-19T03:07:27.873Z,6.00
2018-12-19T03:12:30.922Z,5.90
2018-12-19T03:17:33.997Z,6.10
2018-12-19T03:22:37.129Z,6.00
2018-12-19T03:27:40.261Z,6.00
2018-12-19T03:32:43.343Z,6.10
2018-12-19T03:37:46.461Z,6.10
2018-12-19T03:42:49.561Z,6.30
2018-12-19T03:47:52.611Z,6.30
2018-12-19T03:52:55.761Z,6.30
2018-12-19T03:57:58.843Z,6.40
2018-12-19T04:08:05.026Z,6.60
2018-12-19T04:13:08.077Z,6.60
2018-12-19T04:18:11.138Z,6.60
2018-12-19T04:23:14.323Z,6.60
2018-12-19T04:28:17.395Z,6.50
2018-12-19T04:33:20.456Z,6.50
2018-12-19T04:43:26.861Z,6.50
2018-12-19T04:48:29.924Z,6.50
2018-12-19T04:53:32.971Z,6.80
2018-12-19T04:58:37.908Z,6.90
2018-12-19T05:08:44.134Z,7.20
2018-12-19T05:18:50.263Z,7.40
2018-12-19T05:28:56.375Z,7.50
2018-12-19T05:44:06.183Z,7.60
2018-12-19T05:49:09.242Z,7.70
2018-12-19T05:54:12.295Z,7.60
2018-12-19T06:04:18.433Z,7.60
2018-12-19T06:14:24.637Z,7.70
2018-12-19T06:19:27.814Z,7.70
2018-12-19T06:24:30.889Z,7.70
2018-12-19T06:29:33.984Z,7.70
2018-12-19T06:34:37.014Z,7.70
2018-12-19T06:39:40.112Z,7.70
2018-12-19T06:44:43.178Z,7.70
2018-12-19T06:59:52.369Z,7.70
2018-12-19T07:04:55.428Z,7.70
2018-12-19T07:09:58.486Z,7.70
2018-12-19T07:20:05.347Z,7.60
2018-12-19T07:25:08.837Z,7.70
2018-12-19T07:30:11.905Z,7.60
2018-12-19T07:35:14.957Z,7.70
2018-12-19T07:40:18.053Z,7.70
2018-12-19T07:45:21.106Z,7.70
2018-12-19T07:55:29.190Z,7.80
2018-12-19T08:00:32.253Z,7.80
2018-12-19T08:05:35.306Z,7.90
2018-12-19T08:10:38.406Z,8.10
2018-12-19T08:15:41.547Z,8.10
2018-12-19T08:20:45.153Z,8.10
2018-12-19T08:40:58.987Z,8.20
2018-12-19T08:46:02.504Z,8.20
2018-12-19T08:56:09.126Z,8.20
2018-12-19T09:01:12.238Z,8.20
2018-12-19T09:06:15.367Z,8.30
2018-12-19T09:16:21.545Z,8.50
2018-12-19T09:21:24.593Z,8.70
2018-12-19T09:31:30.926Z,8.80
2018-12-19T09:36:34.009Z,8.80
2018-12-19T09:41:37.129Z,8.90
2018-12-19T09:51:43.381Z,9.10
2018-12-19T09:56:46.512Z,9.20
2018-12-19T10:27:04.953Z,9.70
2018-12-19T10:32:07.997Z,9.60
2018-12-19T10:37:11.066Z,9.70
2018-12-19T10:42:14.101Z,9.70
2018-12-19T11:07:30.606Z,9.60
2018-12-19T11:12:33.662Z,9.60
2018-12-19T11:17:36.794Z,9.70
2018-12-19T11:27:42.947Z,9.80
2018-12-19T11:32:46.029Z,10.00
2018-12-19T11:37:49.181Z,10.00
2018-12-19T11:58:01.533Z,10.10
2018-12-19T12:03:04.659Z,10.10
2018-12-19T12:08:07.715Z,10.10
2018-12-19T12:13:10.780Z,10.00
2018-12-19T12:18:13.942Z,10.10
2018-12-19T12:33:27.512Z,10.30
2018-12-19T12:38:34.174Z,10.30
2018-12-19T12:48:39.916Z,10.50
2018-12-19T12:53:43.050Z,10.50
2018-12-19T12:58:46.112Z,10.60
2018-12-19T13:03:49.446Z,10.70
2018-12-19T13:08:52.539Z,10.70
2018-12-19T13:18:58.828Z,10.70
2018-12-19T13:24:01.917Z,10.70
2018-12-19T13:29:05.081Z,10.50
2018-12-19T13:34:08.554Z,10.40
2018-12-19T13:49:19.456Z,10.30
2018-12-19T13:54:22.726Z,10.10
2018-12-19T14:04:29.156Z,9.80
2018-12-19T14:14:35.394Z,9.70
2018-12-19T14:19:38.470Z,9.70
2018-12-19T14:24:42.090Z,9.80
2018-12-19T14:29:45.377Z,10.00
2018-12-19T14:35:01.846Z,10.10
2018-12-19T14:40:05.404Z,10.20
2018-12-19T14:45:09.078Z,10.30
2018-12-19T14:55:15.290Z,10.20
2018-12-19T15:00:19.166Z,10.00
2018-12-19T15:05:22.307Z,9.80
2018-12-19T15:10:25.461Z,9.70
2018-12-19T15:15:28.570Z,9.60
2018-12-19T15:20:31.626Z,9.60
2018-12-19T15:25:34.853Z,9.50
2018-12-19T15:30:37.946Z,9.50
2018-12-19T15:40:44.185Z,9.50
2018-12-19T15:45:47.328Z,9.50
2018-12-19T15:55:53.428Z,9.50
2018-12-19T16:05:59.586Z,9.50
2018-12-19T16:11:02.705Z,9.50
2018-12-19T16:16:06.105Z,9.50
2018-12-19T16:31:15.703Z,9.40
2018-12-19T16:36:18.807Z,9.30
2018-12-19T16:41:21.885Z,9.30
2018-12-19T16:56:31.189Z,9.40
2018-12-19T17:01:34.229Z,9.40
2018-12-19T17:11:40.381Z,9.60
2018-12-19T17:16:43.478Z,9.50
2018-12-19T17:21:46.536Z,9.50
2018-12-19T17:26:49.600Z,9.50
2018-12-19T17:31:52.728Z,9.50
2018-12-19T17:36:56.484Z,9.50
2018-12-19T17:41:59.624Z,9.50
2018-12-19T17:47:02.688Z,9.50
2018-12-19T17:52:05.753Z,9.50
2018-12-19T17:57:08.851Z,9.40
2018-12-19T18:02:11.922Z,9.50
2018-12-19T18:07:14.985Z,9.40
2018-12-19T18:22:24.966Z,9.40
2018-12-19T18:42:37.336Z,9.30
2018-12-19T18:47:40.418Z,9.30
2018-12-19T19:02:50.991Z,9.30
2018-12-19T19:18:00.600Z,9.20
2018-12-19T19:33:09.958Z,9.10
2018-12-19T19:53:23.484Z,8.90
2018-12-19T19:58:26.540Z,8.90
2018-12-19T20:08:32.785Z,8.80
2018-12-19T20:13:35.883Z,8.70
2018-12-19T20:18:38.941Z,8.60
2018-12-19T20:23:42.076Z,8.60
2018-12-19T20:33:48.230Z,8.40
2018-12-19T20:43:54.355Z,8.40
2018-12-19T20:48:57.428Z,8.50
2018-12-19T20:59:03.755Z,8.30
2018-12-19T21:09:10.146Z,8.10
2018-12-19T21:14:13.206Z,8.10
2018-12-19T21:19:16.273Z,8.10
2018-12-19T21:24:20.255Z,8.00
2018-12-19T21:29:23.322Z,7.90
2018-12-19T21:34:26.395Z,8.00
2018-12-19T21:39:29.445Z,7.90
2018-12-19T21:59:42.198Z,7.60
2018-12-19T22:04:45.305Z,7.60
2018-12-19T22:19:54.832Z,7.50
2018-12-19T22:40:09.211Z,7.40
2018-12-19T22:45:12.345Z,7.40
2018-12-19T23:00:22.201Z,7.30
2018-12-19T23:11:02.161Z,7.20
2018-12-19T23:16:05.244Z,7.20
2018-12-19T23:31:15.706Z,7.20
2018-12-19T23:36:19.034Z,7.10
2018-12-19T23:41:22.145Z,7.10
2018-12-19T23:46:25.376Z,7.10
2018-12-19T23:51:28.595Z,7.00
